Rock Rapids, Iowa
Current Conditions -  °F | °C
As of 9:54 AM on Friday 28 Nov 2014 (Local Time) from KLYV Reporting Station
Overcast Overcast  
Wind Chill: 19°   Ceiling: 12000
Heat Index: 27°   Visibility: 7mi
Dew Point: 21°   Wind: 7mph
Humidity: 80%   Direction: 140°SE
Pressure: 29.82"   Gusts: NA
Location:  43.43°N, 96.18°W
Report Text: KLYV 281554Z AUTO 14006KT 7SM OVC120 M03/M06 A2982 RMK AO2
Loading
Personal Weather Stations






























Interactive Weather Map New forecast layout! Learn more

10-Day Weather Forecast

Advertisements
Track Severe Weather on mobile